Norfolk, Virginia
Traffic Map
Current Weather Conditions
Norfolk, Virginia
Clear
Clear
38°
Feels Like: 38°
Wind Chill: 38° Ceiling: Unl
Heat Index: 38° Visibility: 10mi
Dew Point: 35° Wind: 3mph
Humidity: 89% Direction: 190° (S)
Pressure: 30.15in Gusts: 0mph
Raw Report DataKORF 181151Z 19003KT 10SM CLR 03/02 A3015 RMK AO2 SLP209 T00330017 10078 20033 53003
Traffic Incident Summary
Active as of:
Severity:
Category:
InformationThere was an issue retrieving the traffic information for this location. Please try a different location or try again shortly.
Advertisements